sensor_id;sensor_type;location;lat;lon;timestamp;temperature;humidity
1524;DHT22;755;53.658;10.118;2022-10-16T00:07:02;13.80;99.90
1524;DHT22;755;53.658;10.118;2022-10-16T00:17:04;13.80;99.90
1524;DHT22;755;53.658;10.118;2022-10-16T00:27:08;13.80;99.90
1524;DHT22;755;53.658;10.118;2022-10-16T00:37:09;13.70;99.90
1524;DHT22;755;53.658;10.118;2022-10-16T00:47:19;13.60;99.90
1524;DHT22;755;53.658;10.118;2022-10-16T00:57:23;13.60;99.90
1524;DHT22;755;53.658;10.118;2022-10-16T01:07:36;13.70;99.90
1524;DHT22;755;53.658;10.118;2022-10-16T01:17:44;13.80;99.90
1524;DHT22;755;53.658;10.118;2022-10-16T01:27:48;13.80;99.90
1524;DHT22;755;53.658;10.118;2022-10-16T01:37:55;13.70;99.90
1524;DHT22;755;53.658;10.118;2022-10-16T01:48:02;13.60;99.90
1524;DHT22;755;53.658;10.118;2022-10-16T01:58:09;13.60;99.90
1524;DHT22;755;53.658;10.118;2022-10-16T02:08:13;13.40;99.90
1524;DHT22;755;53.658;10.118;2022-10-16T02:18:16;13.30;99.90
1524;DHT22;755;53.658;10.118;2022-10-16T02:28:23;13.30;99.90
1524;DHT22;755;53.658;10.118;2022-10-16T02:38:27;13.20;99.90
1524;DHT22;755;53.658;10.118;2022-10-16T02:48:32;13.20;99.90
1524;DHT22;755;53.658;10.118;2022-10-16T02:58:37;13.10;99.90
1524;DHT22;755;53.658;10.118;2022-10-16T03:08:44;13.00;99.90
1524;DHT22;755;53.658;10.118;2022-10-16T03:18:48;12.90;99.90
1524;DHT22;755;53.658;10.118;2022-10-16T03:28:52;12.60;99.90
1524;DHT22;755;53.658;10.118;2022-10-16T03:38:55;12.10;99.90
1524;DHT22;755;53.658;10.118;2022-10-16T03:48:58;11.90;99.90
1524;DHT22;755;53.658;10.118;2022-10-16T03:59:00;11.90;99.90
1524;DHT22;755;53.658;10.118;2022-10-16T04:09:04;11.90;99.90
1524;DHT22;755;53.658;10.118;2022-10-16T04:19:07;11.80;99.90
1524;DHT22;755;53.658;10.118;2022-10-16T04:29:10;11.80;99.90
1524;DHT22;755;53.658;10.118;2022-10-16T04:39:13;11.70;99.90
1524;DHT22;755;53.658;10.118;2022-10-16T04:49:16;11.50;99.90
1524;DHT22;755;53.658;10.118;2022-10-16T04:59:19;11.50;99.90
1524;DHT22;755;53.658;10.118;2022-10-16T05:09:23;11.30;99.90
1524;DHT22;755;53.658;10.118;2022-10-16T05:19:25;11.20;99.90
1524;DHT22;755;53.658;10.118;2022-10-16T05:29:28;11.10;99.90
1524;DHT22;755;53.658;10.118;2022-10-16T05:39:31;11.00;99.90
1524;DHT22;755;53.658;10.118;2022-10-16T05:49:34;11.00;99.90
1524;DHT22;755;53.658;10.118;2022-10-16T05:59:36;11.10;99.90
1524;DHT22;755;53.658;10.118;2022-10-16T06:09:40;11.20;99.90
1524;DHT22;755;53.658;10.118;2022-10-16T06:19:42;11.20;99.90
1524;DHT22;755;53.658;10.118;2022-10-16T06:29:45;11.30;99.90
1524;DHT22;755;53.658;10.118;2022-10-16T06:39:48;11.30;99.90
1524;DHT22;755;53.658;10.118;2022-10-16T06:49:51;11.30;99.90
1524;DHT22;755;53.658;10.118;2022-10-16T06:59:53;11.40;99.90
1524;DHT22;755;53.658;10.118;2022-10-16T07:09:57;11.70;99.90
1524;DHT22;755;53.658;10.118;2022-10-16T07:19:59;12.10;99.90
1524;DHT22;755;53.658;10.118;2022-10-16T07:30:03;12.70;99.90
1524;DHT22;755;53.658;10.118;2022-10-16T07:40:06;13.10;99.90
1524;DHT22;755;53.658;10.118;2022-10-16T07:50:10;13.30;99.90
1524;DHT22;755;53.658;10.118;2022-10-16T08:00:12;13.50;99.90
1524;DHT22;755;53.658;10.118;2022-10-16T08:10:17;14.10;99.90
1524;DHT22;755;53.658;10.118;2022-10-16T08:20:19;13.90;99.90
1524;DHT22;755;53.658;10.118;2022-10-16T08:30:23;13.90;99.90
1524;DHT22;755;53.658;10.118;2022-10-16T08:40:28;14.00;99.90
1524;DHT22;755;53.658;10.118;2022-10-16T08:50:37;14.30;99.90
1524;DHT22;755;53.658;10.118;2022-10-16T09:00:40;14.60;99.90
1524;DHT22;755;53.658;10.118;2022-10-16T09:10:49;14.60;99.90
1524;DHT22;755;53.658;10.118;2022-10-16T09:21:00;15.00;99.90
1524;DHT22;755;53.658;10.118;2022-10-16T09:42:10;15.40;99.90
1524;DHT22;755;53.658;10.118;2022-10-16T09:52:14;15.40;99.90
1524;DHT22;755;53.658;10.118;2022-10-16T10:02:36;15.60;99.90
1524;DHT22;755;53.658;10.118;2022-10-16T10:12:47;15.80;43.10
1524;DHT22;755;53.658;10.118;2022-10-16T10:23:19;15.80;99.90
1524;DHT22;755;53.658;10.118;2022-10-16T10:33:48;16.00;1.00
1524;DHT22;755;53.658;10.118;2022-10-16T10:44:24;16.20;1.00
1524;DHT22;755;53.658;10.118;2022-10-16T10:54:41;16.20;2.80
1524;DHT22;755;53.658;10.118;2022-10-16T11:05:21;16.40;99.90
1524;DHT22;755;53.658;10.118;2022-10-16T11:15:28;16.80;1.00
1524;DHT22;755;53.658;10.118;2022-10-16T11:25:33;16.80;99.90
1524;DHT22;755;53.658;10.118;2022-10-16T11:35:40;16.80;99.90
1524;DHT22;755;53.658;10.118;2022-10-16T11:45:48;17.00;99.90
1524;DHT22;755;53.658;10.118;2022-10-16T11:55:55;16.90;99.90
1524;DHT22;755;53.658;10.118;2022-10-16T12:06:22;17.00;99.90
1524;DHT22;755;53.658;10.118;2022-10-16T12:16:37;16.90;99.90
1524;DHT22;755;53.658;10.118;2022-10-16T12:38:08;17.30;1.00
1524;DHT22;755;53.658;10.118;2022-10-16T12:48:27;17.30;1.00
1524;DHT22;755;53.658;10.118;2022-10-16T12:58:51;17.00;7.80
1524;DHT22;755;53.658;10.118;2022-10-16T13:09:14;17.00;1.00
1524;DHT22;755;53.658;10.118;2022-10-16T13:19:29;16.80;1.00
1524;DHT22;755;53.658;10.118;2022-10-16T13:29:35;16.90;99.90
1524;DHT22;755;53.658;10.118;2022-10-16T13:39:39;16.90;99.90
1524;DHT22;755;53.658;10.118;2022-10-16T13:49:41;17.10;1.00
1524;DHT22;755;53.658;10.118;2022-10-16T13:59:44;17.10;1.00
1524;DHT22;755;53.658;10.118;2022-10-16T14:09:52;16.80;1.00
1524;DHT22;755;53.658;10.118;2022-10-16T14:31:28;16.60;99.90
1524;DHT22;755;53.658;10.118;2022-10-16T14:41:33;16.40;
1524;DHT22;755;53.658;10.118;2022-10-16T14:51:44;16.40;1.00
1524;DHT22;755;53.658;10.118;2022-10-16T15:01:47;16.40;99.90
1524;DHT22;755;53.658;10.118;2022-10-16T15:11:50;16.20;99.90
1524;DHT22;755;53.658;10.118;2022-10-16T15:21:52;16.10;1.00
1524;DHT22;755;53.658;10.118;2022-10-16T15:31:55;16.00;1.00
1524;DHT22;755;53.658;10.118;2022-10-16T15:41:57;15.70;99.90
1524;DHT22;755;53.658;10.118;2022-10-16T15:52:01;15.50;1.00
1524;DHT22;755;53.658;10.118;2022-10-16T16:02:03;15.30;99.90
1524;DHT22;755;53.658;10.118;2022-10-16T16:12:07;15.10;99.90
1524;DHT22;755;53.658;10.118;2022-10-16T16:22:10;14.80;99.90
1524;DHT22;755;53.658;10.118;2022-10-16T16:32:18;14.50;99.90
1524;DHT22;755;53.658;10.118;2022-10-16T16:42:26;13.90;99.90
1524;DHT22;755;53.658;10.118;2022-10-16T16:52:50;13.60;99.90
1524;DHT22;755;53.658;10.118;2022-10-16T17:02:53;13.20;99.90
1524;DHT22;755;53.658;10.118;2022-10-16T17:12:57;13.10;99.90
1524;DHT22;755;53.658;10.118;2022-10-16T17:23:00;12.90;99.90
1524;DHT22;755;53.658;10.118;2022-10-16T17:33:07;12.60;99.90
1524;DHT22;755;53.658;10.118;2022-10-16T17:43:15;12.50;99.90
1524;DHT22;755;53.658;10.118;2022-10-16T17:53:19;12.30;99.90
1524;DHT22;755;53.658;10.118;2022-10-16T18:03:22;12.00;99.90
1524;DHT22;755;53.658;10.118;2022-10-16T18:13:28;11.90;99.90
1524;DHT22;755;53.658;10.118;2022-10-16T18:23:32;11.70;99.90
1524;DHT22;755;53.658;10.118;2022-10-16T18:33:38;11.50;99.90
1524;DHT22;755;53.658;10.118;2022-10-16T18:43:40;11.40;99.90
1524;DHT22;755;53.658;10.118;2022-10-16T18:54:14;11.30;99.90
1524;DHT22;755;53.658;10.118;2022-10-16T19:04:17;11.20;99.90
1524;DHT22;755;53.658;10.118;2022-10-16T19:14:23;11.10;99.90
1524;DHT22;755;53.658;10.118;2022-10-16T19:24:26;11.10;99.90
1524;DHT22;755;53.658;10.118;2022-10-16T19:34:30;11.00;99.90
1524;DHT22;755;53.658;10.118;2022-10-16T19:44:35;10.90;99.90
1524;DHT22;755;53.658;10.118;2022-10-16T19:54:44;10.80;99.90
1524;DHT22;755;53.658;10.118;2022-10-16T20:04:50;10.70;99.90
1524;DHT22;755;53.658;10.118;2022-10-16T20:14:56;10.50;99.90
1524;DHT22;755;53.658;10.118;2022-10-16T20:24:58;10.60;99.90
1524;DHT22;755;53.658;10.118;2022-10-16T20:35:02;10.50;99.90
1524;DHT22;755;53.658;10.118;2022-10-16T20:45:05;10.50;99.90
1524;DHT22;755;53.658;10.118;2022-10-16T20:55:09;10.60;99.90
1524;DHT22;755;53.658;10.118;2022-10-16T21:05:11;10.50;99.90
1524;DHT22;755;53.658;10.118;2022-10-16T21:15:14;10.60;99.90
1524;DHT22;755;53.658;10.118;2022-10-16T21:25:16;10.50;99.90
1524;DHT22;755;53.658;10.118;2022-10-16T21:35:20;10.40;99.90
1524;DHT22;755;53.658;10.118;2022-10-16T21:45:22;10.40;99.90
1524;DHT22;755;53.658;10.118;2022-10-16T21:55:25;10.30;99.90
1524;DHT22;755;53.658;10.118;2022-10-16T22:05:27;10.30;99.90
1524;DHT22;755;53.658;10.118;2022-10-16T22:15:30;10.30;99.90
1524;DHT22;755;53.658;10.118;2022-10-16T22:25:33;10.40;99.90
1524;DHT22;755;53.658;10.118;2022-10-16T22:35:39;10.40;99.90
1524;DHT22;755;53.658;10.118;2022-10-16T22:45:41;10.50;99.90
1524;DHT22;755;53.658;10.118;2022-10-16T22:55:46;10.50;99.90
1524;DHT22;755;53.658;10.118;2022-10-16T23:05:49;10.50;99.90
1524;DHT22;755;53.658;10.118;2022-10-16T23:15:58;10.60;99.90
1524;DHT22;755;53.658;10.118;2022-10-16T23:26:08;10.60;99.90
1524;DHT22;755;53.658;10.118;2022-10-16T23:36:15;10.70;99.90
1524;DHT22;755;53.658;10.118;2022-10-16T23:46:18;10.70;99.90
1524;DHT22;755;53.658;10.118;2022-10-16T23:56:36;10.80;99.90
